sensor_id;sensor_type;location;lat;lon;timestamp;temperature;humidity
4566;DHT22;2295;51.050;14.608;2023-04-24T00:00:19;7.60;99.90
4566;DHT22;2295;51.050;14.608;2023-04-24T00:02:49;7.60;99.90
4566;DHT22;2295;51.050;14.608;2023-04-24T00:05:18;7.70;99.90
4566;DHT22;2295;51.050;14.608;2023-04-24T00:07:46;7.60;99.90
4566;DHT22;2295;51.050;14.608;2023-04-24T00:10:15;7.70;99.90
4566;DHT22;2295;51.050;14.608;2023-04-24T00:12:43;7.60;99.90
4566;DHT22;2295;51.050;14.608;2023-04-24T00:15:11;7.50;99.90
4566;DHT22;2295;51.050;14.608;2023-04-24T00:17:40;7.60;99.90
4566;DHT22;2295;51.050;14.608;2023-04-24T00:20:10;7.50;99.90
4566;DHT22;2295;51.050;14.608;2023-04-24T00:22:39;7.50;99.90
4566;DHT22;2295;51.050;14.608;2023-04-24T00:25:08;7.50;99.90
4566;DHT22;2295;51.050;14.608;2023-04-24T00:27:36;7.40;99.90
4566;DHT22;2295;51.050;14.608;2023-04-24T00:30:06;7.40;99.90
4566;DHT22;2295;51.050;14.608;2023-04-24T00:32:35;7.30;99.90
4566;DHT22;2295;51.050;14.608;2023-04-24T00:35:05;7.10;99.90
4566;DHT22;2295;51.050;14.608;2023-04-24T00:37:35;7.10;99.90
4566;DHT22;2295;51.050;14.608;2023-04-24T00:40:05;7.10;99.90
4566;DHT22;2295;51.050;14.608;2023-04-24T00:42:34;7.00;99.90
4566;DHT22;2295;51.050;14.608;2023-04-24T00:45:02;6.90;99.90
4566;DHT22;2295;51.050;14.608;2023-04-24T00:47:33;6.80;99.90
4566;DHT22;2295;51.050;14.608;2023-04-24T00:50:02;6.80;99.90
4566;DHT22;2295;51.050;14.608;2023-04-24T00:52:30;6.80;99.90
4566;DHT22;2295;51.050;14.608;2023-04-24T00:55:01;6.70;99.90
4566;DHT22;2295;51.050;14.608;2023-04-24T00:57:29;6.60;99.90
4566;DHT22;2295;51.050;14.608;2023-04-24T00:59:58;6.60;99.90
4566;DHT22;2295;51.050;14.608;2023-04-24T01:02:26;6.50;99.90
4566;DHT22;2295;51.050;14.608;2023-04-24T01:04:56;6.50;99.90
4566;DHT22;2295;51.050;14.608;2023-04-24T01:07:25;6.50;99.90
4566;DHT22;2295;51.050;14.608;2023-04-24T01:09:53;6.50;99.90
4566;DHT22;2295;51.050;14.608;2023-04-24T01:12:23;6.50;99.90
4566;DHT22;2295;51.050;14.608;2023-04-24T01:14:52;6.60;99.90
4566;DHT22;2295;51.050;14.608;2023-04-24T01:17:20;6.50;99.90
4566;DHT22;2295;51.050;14.608;2023-04-24T01:19:49;6.50;99.90
4566;DHT22;2295;51.050;14.608;2023-04-24T01:22:22;6.50;99.90
4566;DHT22;2295;51.050;14.608;2023-04-24T01:24:50;6.60;99.90
4566;DHT22;2295;51.050;14.608;2023-04-24T01:27:20;6.70;99.90
4566;DHT22;2295;51.050;14.608;2023-04-24T01:29:48;6.70;99.90
4566;DHT22;2295;51.050;14.608;2023-04-24T01:32:19;6.70;99.90
4566;DHT22;2295;51.050;14.608;2023-04-24T01:34:48;6.70;99.90
4566;DHT22;2295;51.050;14.608;2023-04-24T01:37:17;6.70;99.90
4566;DHT22;2295;51.050;14.608;2023-04-24T01:39:47;6.80;99.90
4566;DHT22;2295;51.050;14.608;2023-04-24T01:42:15;6.80;99.90
4566;DHT22;2295;51.050;14.608;2023-04-24T01:44:44;7.10;99.90
4566;DHT22;2295;51.050;14.608;2023-04-24T01:47:13;7.60;99.90
4566;DHT22;2295;51.050;14.608;2023-04-24T01:49:42;7.80;99.90
4566;DHT22;2295;51.050;14.608;2023-04-24T01:52:10;7.90;99.90
4566;DHT22;2295;51.050;14.608;2023-04-24T01:54:39;8.00;99.90
4566;DHT22;2295;51.050;14.608;2023-04-24T01:57:09;8.20;99.90
4566;DHT22;2295;51.050;14.608;2023-04-24T01:59:37;8.50;99.90
4566;DHT22;2295;51.050;14.608;2023-04-24T02:02:06;8.70;99.90
4566;DHT22;2295;51.050;14.608;2023-04-24T02:04:34;8.80;99.90
4566;DHT22;2295;51.050;14.608;2023-04-24T02:07:03;8.70;99.90
4566;DHT22;2295;51.050;14.608;2023-04-24T02:09:31;8.60;99.90
4566;DHT22;2295;51.050;14.608;2023-04-24T02:11:59;8.60;99.90
4566;DHT22;2295;51.050;14.608;2023-04-24T02:14:29;8.60;99.90
4566;DHT22;2295;51.050;14.608;2023-04-24T02:16:58;8.60;99.90
4566;DHT22;2295;51.050;14.608;2023-04-24T02:19:28;8.50;99.90
4566;DHT22;2295;51.050;14.608;2023-04-24T02:21:56;8.30;99.90
4566;DHT22;2295;51.050;14.608;2023-04-24T02:24:24;8.30;99.90
4566;DHT22;2295;51.050;14.608;2023-04-24T02:26:53;8.30;99.90
4566;DHT22;2295;51.050;14.608;2023-04-24T02:29:21;8.30;99.90
4566;DHT22;2295;51.050;14.608;2023-04-24T02:31:51;8.40;99.90
4566;DHT22;2295;51.050;14.608;2023-04-24T02:34:19;8.80;99.90
4566;DHT22;2295;51.050;14.608;2023-04-24T02:36:48;9.00;99.90
4566;DHT22;2295;51.050;14.608;2023-04-24T02:39:16;9.20;99.90
4566;DHT22;2295;51.050;14.608;2023-04-24T02:41:45;9.40;99.90
4566;DHT22;2295;51.050;14.608;2023-04-24T02:44:14;9.50;99.90
4566;DHT22;2295;51.050;14.608;2023-04-24T02:46:42;9.50;99.90
4566;DHT22;2295;51.050;14.608;2023-04-24T02:49:12;9.60;99.90
4566;DHT22;2295;51.050;14.608;2023-04-24T02:51:40;9.80;99.90
4566;DHT22;2295;51.050;14.608;2023-04-24T02:54:09;9.90;99.90
4566;DHT22;2295;51.050;14.608;2023-04-24T02:56:37;10.00;99.90
4566;DHT22;2295;51.050;14.608;2023-04-24T02:59:06;10.20;99.90
4566;DHT22;2295;51.050;14.608;2023-04-24T03:01:34;10.20;99.90
4566;DHT22;2295;51.050;14.608;2023-04-24T03:04:03;10.30;99.90
4566;DHT22;2295;51.050;14.608;2023-04-24T03:06:33;10.30;99.90
4566;DHT22;2295;51.050;14.608;2023-04-24T03:09:02;10.30;99.90
4566;DHT22;2295;51.050;14.608;2023-04-24T03:11:31;10.40;99.90
4566;DHT22;2295;51.050;14.608;2023-04-24T03:13:59;10.40;99.90
4566;DHT22;2295;51.050;14.608;2023-04-24T03:16:28;10.30;99.90
4566;DHT22;2295;51.050;14.608;2023-04-24T03:18:56;10.30;99.90
4566;DHT22;2295;51.050;14.608;2023-04-24T03:21:25;10.20;99.90
4566;DHT22;2295;51.050;14.608;2023-04-24T03:23:55;10.20;99.90
4566;DHT22;2295;51.050;14.608;2023-04-24T03:26:24;10.20;99.90
4566;DHT22;2295;51.050;14.608;2023-04-24T03:28:52;10.10;99.90
4566;DHT22;2295;51.050;14.608;2023-04-24T03:31:20;10.10;99.90
4566;DHT22;2295;51.050;14.608;2023-04-24T03:33:49;10.20;99.90
4566;DHT22;2295;51.050;14.608;2023-04-24T03:36:18;10.10;99.90
4566;DHT22;2295;51.050;14.608;2023-04-24T03:38:47;10.10;99.90
4566;DHT22;2295;51.050;14.608;2023-04-24T03:41:17;10.20;99.90
4566;DHT22;2295;51.050;14.608;2023-04-24T03:43:45;10.20;99.90
4566;DHT22;2295;51.050;14.608;2023-04-24T03:46:14;10.20;99.90
4566;DHT22;2295;51.050;14.608;2023-04-24T03:48:42;10.10;99.90
4566;DHT22;2295;51.050;14.608;2023-04-24T03:51:10;10.10;99.90
4566;DHT22;2295;51.050;14.608;2023-04-24T03:53:39;10.00;99.90
4566;DHT22;2295;51.050;14.608;2023-04-24T03:56:07;10.00;99.90
4566;DHT22;2295;51.050;14.608;2023-04-24T03:58:37;9.90;99.90
4566;DHT22;2295;51.050;14.608;2023-04-24T04:01:05;9.80;99.90
4566;DHT22;2295;51.050;14.608;2023-04-24T04:03:34;9.70;99.90
4566;DHT22;2295;51.050;14.608;2023-04-24T04:06:03;9.70;99.90
4566;DHT22;2295;51.050;14.608;2023-04-24T04:08:31;9.60;99.90
4566;DHT22;2295;51.050;14.608;2023-04-24T04:10:59;9.50;99.90
4566;DHT22;2295;51.050;14.608;2023-04-24T04:13:31;9.40;99.90
4566;DHT22;2295;51.050;14.608;2023-04-24T04:16:00;9.30;99.90
4566;DHT22;2295;51.050;14.608;2023-04-24T04:18:29;9.20;99.90
4566;DHT22;2295;51.050;14.608;2023-04-24T04:20:57;9.10;99.90
4566;DHT22;2295;51.050;14.608;2023-04-24T04:23:28;9.00;99.90
4566;DHT22;2295;51.050;14.608;2023-04-24T04:25:56;8.90;99.90
4566;DHT22;2295;51.050;14.608;2023-04-24T04:28:24;8.90;99.90
4566;DHT22;2295;51.050;14.608;2023-04-24T04:30:53;8.80;99.90
4566;DHT22;2295;51.050;14.608;2023-04-24T04:33:24;8.90;99.90
4566;DHT22;2295;51.050;14.608;2023-04-24T04:35:53;8.90;99.90
4566;DHT22;2295;51.050;14.608;2023-04-24T04:38:23;8.90;99.90
4566;DHT22;2295;51.050;14.608;2023-04-24T04:40:53;8.90;99.90
4566;DHT22;2295;51.050;14.608;2023-04-24T04:43:23;8.90;99.90
4566;DHT22;2295;51.050;14.608;2023-04-24T04:45:52;9.00;99.90
4566;DHT22;2295;51.050;14.608;2023-04-24T04:48:21;9.10;99.90
4566;DHT22;2295;51.050;14.608;2023-04-24T04:50:51;9.30;99.90
4566;DHT22;2295;51.050;14.608;2023-04-24T04:53:19;9.50;99.90
4566;DHT22;2295;51.050;14.608;2023-04-24T04:55:47;9.80;99.90
4566;DHT22;2295;51.050;14.608;2023-04-24T04:58:16;9.90;99.90
4566;DHT22;2295;51.050;14.608;2023-04-24T05:00:44;10.10;99.90
4566;DHT22;2295;51.050;14.608;2023-04-24T05:03:13;10.20;99.90
4566;DHT22;2295;51.050;14.608;2023-04-24T05:05:47;10.30;99.90
4566;DHT22;2295;51.050;14.608;2023-04-24T05:08:17;10.40;99.90
4566;DHT22;2295;51.050;14.608;2023-04-24T05:10:54;10.50;99.90
4566;DHT22;2295;51.050;14.608;2023-04-24T05:13:23;10.50;99.90
4566;DHT22;2295;51.050;14.608;2023-04-24T05:16:05;10.60;99.90
4566;DHT22;2295;51.050;14.608;2023-04-24T05:18:33;10.80;99.90
4566;DHT22;2295;51.050;14.608;2023-04-24T05:21:02;10.90;99.90
4566;DHT22;2295;51.050;14.608;2023-04-24T05:23:32;11.00;99.90
4566;DHT22;2295;51.050;14.608;2023-04-24T05:26:00;11.10;99.90
4566;DHT22;2295;51.050;14.608;2023-04-24T05:28:31;11.20;99.90
4566;DHT22;2295;51.050;14.608;2023-04-24T05:30:59;11.30;99.90
4566;DHT22;2295;51.050;14.608;2023-04-24T05:33:28;11.30;99.90
4566;DHT22;2295;51.050;14.608;2023-04-24T05:35:56;11.30;99.90
4566;DHT22;2295;51.050;14.608;2023-04-24T05:38:25;11.30;99.90
4566;DHT22;2295;51.050;14.608;2023-04-24T05:40:54;11.30;99.90
4566;DHT22;2295;51.050;14.608;2023-04-24T05:43:23;11.30;99.90
4566;DHT22;2295;51.050;14.608;2023-04-24T05:45:52;11.20;99.90
4566;DHT22;2295;51.050;14.608;2023-04-24T05:48:20;11.30;99.90
4566;DHT22;2295;51.050;14.608;2023-04-24T05:50:49;11.30;99.90
4566;DHT22;2295;51.050;14.608;2023-04-24T05:53:19;11.30;99.90
4566;DHT22;2295;51.050;14.608;2023-04-24T05:55:47;11.30;99.90
4566;DHT22;2295;51.050;14.608;2023-04-24T05:58:17;11.30;99.90
4566;DHT22;2295;51.050;14.608;2023-04-24T06:00:46;11.30;99.90
4566;DHT22;2295;51.050;14.608;2023-04-24T06:03:14;11.30;99.90
4566;DHT22;2295;51.050;14.608;2023-04-24T06:05:50;11.40;99.90
4566;DHT22;2295;51.050;14.608;2023-04-24T06:08:18;11.40;99.90
4566;DHT22;2295;51.050;14.608;2023-04-24T06:10:46;11.40;99.90
4566;DHT22;2295;51.050;14.608;2023-04-24T06:13:16;11.50;99.90
4566;DHT22;2295;51.050;14.608;2023-04-24T06:15:45;11.50;99.90
4566;DHT22;2295;51.050;14.608;2023-04-24T06:18:13;11.50;99.90
4566;DHT22;2295;51.050;14.608;2023-04-24T06:20:42;11.60;99.90
4566;DHT22;2295;51.050;14.608;2023-04-24T06:23:10;11.60;99.90
4566;DHT22;2295;51.050;14.608;2023-04-24T06:25:47;11.70;99.90
4566;DHT22;2295;51.050;14.608;2023-04-24T06:28:17;11.80;99.90
4566;DHT22;2295;51.050;14.608;2023-04-24T06:30:45;11.90;99.90
4566;DHT22;2295;51.050;14.608;2023-04-24T06:33:15;12.00;99.90
4566;DHT22;2295;51.050;14.608;2023-04-24T06:35:48;12.00;99.90
4566;DHT22;2295;51.050;14.608;2023-04-24T06:38:17;12.10;99.90
4566;DHT22;2295;51.050;14.608;2023-04-24T06:40:45;12.20;99.90
4566;DHT22;2295;51.050;14.608;2023-04-24T06:43:13;12.20;99.90
4566;DHT22;2295;51.050;14.608;2023-04-24T06:45:43;12.10;99.90
4566;DHT22;2295;51.050;14.608;2023-04-24T06:48:13;12.10;99.90
4566;DHT22;2295;51.050;14.608;2023-04-24T06:50:42;11.90;99.90
4566;DHT22;2295;51.050;14.608;2023-04-24T06:53:10;11.80;99.90
4566;DHT22;2295;51.050;14.608;2023-04-24T06:55:39;11.70;99.90
4566;DHT22;2295;51.050;14.608;2023-04-24T06:58:08;11.70;99.90
4566;DHT22;2295;51.050;14.608;2023-04-24T07:00:37;11.80;99.90
4566;DHT22;2295;51.050;14.608;2023-04-24T07:03:07;11.90;99.90
4566;DHT22;2295;51.050;14.608;2023-04-24T07:05:35;11.80;99.90
4566;DHT22;2295;51.050;14.608;2023-04-24T07:08:05;11.80;99.90
4566;DHT22;2295;51.050;14.608;2023-04-24T07:10:33;11.80;99.90
4566;DHT22;2295;51.050;14.608;2023-04-24T07:13:02;11.80;99.90
4566;DHT22;2295;51.050;14.608;2023-04-24T07:15:31;11.80;99.90
4566;DHT22;2295;51.050;14.608;2023-04-24T07:17:59;11.70;99.90
4566;DHT22;2295;51.050;14.608;2023-04-24T07:20:32;11.80;99.90
4566;DHT22;2295;51.050;14.608;2023-04-24T07:23:02;12.00;99.90
4566;DHT22;2295;51.050;14.608;2023-04-24T07:25:30;12.10;99.90
4566;DHT22;2295;51.050;14.608;2023-04-24T07:27:59;12.20;99.90
4566;DHT22;2295;51.050;14.608;2023-04-24T07:30:28;12.30;99.90
4566;DHT22;2295;51.050;14.608;2023-04-24T07:32:57;12.30;99.90
4566;DHT22;2295;51.050;14.608;2023-04-24T07:35:26;12.40;99.90
4566;DHT22;2295;51.050;14.608;2023-04-24T07:37:57;12.50;99.90
4566;DHT22;2295;51.050;14.608;2023-04-24T07:40:26;12.60;99.90
4566;DHT22;2295;51.050;14.608;2023-04-24T07:42:54;12.50;99.90
4566;DHT22;2295;51.050;14.608;2023-04-24T07:45:23;12.50;99.90
4566;DHT22;2295;51.050;14.608;2023-04-24T07:47:53;12.50;99.90
4566;DHT22;2295;51.050;14.608;2023-04-24T07:50:22;12.50;99.90
4566;DHT22;2295;51.050;14.608;2023-04-24T07:52:50;12.40;99.90
4566;DHT22;2295;51.050;14.608;2023-04-24T07:55:20;12.50;99.90
4566;DHT22;2295;51.050;14.608;2023-04-24T07:57:51;12.60;99.90
4566;DHT22;2295;51.050;14.608;2023-04-24T08:00:20;12.70;99.90
4566;DHT22;2295;51.050;14.608;2023-04-24T08:02:48;12.80;99.90
4566;DHT22;2295;51.050;14.608;2023-04-24T08:05:17;12.90;99.90
4566;DHT22;2295;51.050;14.608;2023-04-24T08:07:48;13.00;99.90
4566;DHT22;2295;51.050;14.608;2023-04-24T08:10:17;13.00;99.90
4566;DHT22;2295;51.050;14.608;2023-04-24T08:12:47;13.10;99.90
4566;DHT22;2295;51.050;14.608;2023-04-24T08:15:15;13.20;99.90
4566;DHT22;2295;51.050;14.608;2023-04-24T08:17:44;13.30;99.90
4566;DHT22;2295;51.050;14.608;2023-04-24T08:20:12;13.30;99.90
4566;DHT22;2295;51.050;14.608;2023-04-24T08:22:42;13.30;99.90
4566;DHT22;2295;51.050;14.608;2023-04-24T08:25:14;13.40;99.90
4566;DHT22;2295;51.050;14.608;2023-04-24T08:27:42;13.60;99.90
4566;DHT22;2295;51.050;14.608;2023-04-24T08:30:12;13.80;99.90
4566;DHT22;2295;51.050;14.608;2023-04-24T08:32:41;14.10;99.90
4566;DHT22;2295;51.050;14.608;2023-04-24T08:35:09;14.40;99.90
4566;DHT22;2295;51.050;14.608;2023-04-24T08:37:38;14.70;99.90
4566;DHT22;2295;51.050;14.608;2023-04-24T08:40:12;15.00;99.90
4566;DHT22;2295;51.050;14.608;2023-04-24T08:42:42;15.30;99.90
4566;DHT22;2295;51.050;14.608;2023-04-24T08:45:14;15.50;99.90
4566;DHT22;2295;51.050;14.608;2023-04-24T08:47:43;15.60;99.90
4566;DHT22;2295;51.050;14.608;2023-04-24T08:50:12;15.70;99.90
4566;DHT22;2295;51.050;14.608;2023-04-24T08:52:42;15.80;99.90
4566;DHT22;2295;51.050;14.608;2023-04-24T08:55:11;15.60;99.90
4566;DHT22;2295;51.050;14.608;2023-04-24T08:57:39;15.30;99.90
4566;DHT22;2295;51.050;14.608;2023-04-24T09:00:08;15.20;99.90
4566;DHT22;2295;51.050;14.608;2023-04-24T09:02:42;15.40;99.90
4566;DHT22;2295;51.050;14.608;2023-04-24T09:05:12;15.50;99.90
4566;DHT22;2295;51.050;14.608;2023-04-24T09:07:42;15.50;99.90
4566;DHT22;2295;51.050;14.608;2023-04-24T09:10:13;15.50;99.90
4566;DHT22;2295;51.050;14.608;2023-04-24T09:12:42;15.60;99.90
4566;DHT22;2295;51.050;14.608;2023-04-24T09:15:11;15.70;99.90
4566;DHT22;2295;51.050;14.608;2023-04-24T09:17:41;15.90;99.90
4566;DHT22;2295;51.050;14.608;2023-04-24T09:20:10;16.00;99.90
4566;DHT22;2295;51.050;14.608;2023-04-24T09:22:38;16.20;99.90
4566;DHT22;2295;51.050;14.608;2023-04-24T09:25:08;16.60;99.90
4566;DHT22;2295;51.050;14.608;2023-04-24T09:27:42;17.10;99.90
4566;DHT22;2295;51.050;14.608;2023-04-24T09:30:12;17.50;99.90
4566;DHT22;2295;51.050;14.608;2023-04-24T09:32:42;17.50;99.90
4566;DHT22;2295;51.050;14.608;2023-04-24T09:35:15;17.20;99.90
4566;DHT22;2295;51.050;14.608;2023-04-24T09:37:45;17.20;99.90
4566;DHT22;2295;51.050;14.608;2023-04-24T09:40:16;17.30;99.90
4566;DHT22;2295;51.050;14.608;2023-04-24T09:42:45;17.70;99.90
4566;DHT22;2295;51.050;14.608;2023-04-24T09:45:13;17.80;99.90
4566;DHT22;2295;51.050;14.608;2023-04-24T09:47:43;17.70;98.50
4566;DHT22;2295;51.050;14.608;2023-04-24T09:50:14;17.40;97.50
4566;DHT22;2295;51.050;14.608;2023-04-24T09:52:44;17.10;99.90
4566;DHT22;2295;51.050;14.608;2023-04-24T09:55:18;17.00;99.90
4566;DHT22;2295;51.050;14.608;2023-04-24T09:57:48;17.30;99.90
4566;DHT22;2295;51.050;14.608;2023-04-24T10:00:25;17.70;99.90
4566;DHT22;2295;51.050;14.608;2023-04-24T10:03:02;17.90;98.20
4566;DHT22;2295;51.050;14.608;2023-04-24T10:05:32;18.00;99.90
4566;DHT22;2295;51.050;14.608;2023-04-24T10:08:03;18.30;96.70
4566;DHT22;2295;51.050;14.608;2023-04-24T10:10:33;18.30;98.80
4566;DHT22;2295;51.050;14.608;2023-04-24T10:13:02;18.30;94.90
4566;DHT22;2295;51.050;14.608;2023-04-24T10:15:32;18.10;94.20
4566;DHT22;2295;51.050;14.608;2023-04-24T10:18:02;17.90;99.90
4566;DHT22;2295;51.050;14.608;2023-04-24T10:20:34;17.70;96.80
4566;DHT22;2295;51.050;14.608;2023-04-24T10:23:05;17.20;96.90
4566;DHT22;2295;51.050;14.608;2023-04-24T10:25:34;16.80;99.90
4566;DHT22;2295;51.050;14.608;2023-04-24T10:28:03;16.50;99.90
4566;DHT22;2295;51.050;14.608;2023-04-24T10:30:34;16.20;99.90
4566;DHT22;2295;51.050;14.608;2023-04-24T10:33:06;16.10;99.90
4566;DHT22;2295;51.050;14.608;2023-04-24T10:35:38;16.10;99.90
4566;DHT22;2295;51.050;14.608;2023-04-24T10:38:11;15.80;99.90
4566;DHT22;2295;51.050;14.608;2023-04-24T10:40:40;15.60;99.90
4566;DHT22;2295;51.050;14.608;2023-04-24T10:43:08;15.40;99.90
4566;DHT22;2295;51.050;14.608;2023-04-24T10:45:38;15.30;99.90
4566;DHT22;2295;51.050;14.608;2023-04-24T10:48:08;15.10;99.90
4566;DHT22;2295;51.050;14.608;2023-04-24T10:50:45;14.90;99.90
4566;DHT22;2295;51.050;14.608;2023-04-24T10:53:16;14.50;99.90
4566;DHT22;2295;51.050;14.608;2023-04-24T10:55:47;14.10;99.90
4566;DHT22;2295;51.050;14.608;2023-04-24T10:58:16;13.70;99.90
4566;DHT22;2295;51.050;14.608;2023-04-24T11:00:56;13.40;99.90
4566;DHT22;2295;51.050;14.608;2023-04-24T11:03:28;13.20;99.90
4566;DHT22;2295;51.050;14.608;2023-04-24T11:05:59;13.10;99.90
4566;DHT22;2295;51.050;14.608;2023-04-24T11:08:30;13.10;99.90
4566;DHT22;2295;51.050;14.608;2023-04-24T11:11:03;13.20;99.90
4566;DHT22;2295;51.050;14.608;2023-04-24T11:14:06;13.20;99.90
4566;DHT22;2295;51.050;14.608;2023-04-24T11:16:38;13.30;99.90
4566;DHT22;2295;51.050;14.608;2023-04-24T11:19:17;13.30;99.90
4566;DHT22;2295;51.050;14.608;2023-04-24T11:21:47;13.30;99.90
4566;DHT22;2295;51.050;14.608;2023-04-24T11:24:32;13.30;99.90
4566;DHT22;2295;51.050;14.608;2023-04-24T11:27:13;13.50;99.90
4566;DHT22;2295;51.050;14.608;2023-04-24T11:29:45;13.80;99.90
4566;DHT22;2295;51.050;14.608;2023-04-24T11:32:18;14.10;99.90
4566;DHT22;2295;51.050;14.608;2023-04-24T11:34:50;14.20;99.90
4566;DHT22;2295;51.050;14.608;2023-04-24T11:37:19;14.40;99.90
4566;DHT22;2295;51.050;14.608;2023-04-24T11:39:50;14.20;99.90
4566;DHT22;2295;51.050;14.608;2023-04-24T11:42:20;14.00;99.90
4566;DHT22;2295;51.050;14.608;2023-04-24T11:44:49;13.90;99.90
4566;DHT22;2295;51.050;14.608;2023-04-24T11:47:18;13.90;99.90
4566;DHT22;2295;51.050;14.608;2023-04-24T11:49:46;14.10;99.90
4566;DHT22;2295;51.050;14.608;2023-04-24T11:52:17;14.20;99.90
4566;DHT22;2295;51.050;14.608;2023-04-24T11:54:49;14.40;99.90
4566;DHT22;2295;51.050;14.608;2023-04-24T11:57:19;14.50;99.90
4566;DHT22;2295;51.050;14.608;2023-04-24T11:59:49;14.40;99.90
4566;DHT22;2295;51.050;14.608;2023-04-24T12:02:22;14.30;99.90
4566;DHT22;2295;51.050;14.608;2023-04-24T12:04:51;14.40;99.90
4566;DHT22;2295;51.050;14.608;2023-04-24T12:07:23;14.50;99.90
4566;DHT22;2295;51.050;14.608;2023-04-24T12:09:56;14.60;99.90
4566;DHT22;2295;51.050;14.608;2023-04-24T12:12:26;14.70;99.90
4566;DHT22;2295;51.050;14.608;2023-04-24T12:14:55;15.00;99.90
4566;DHT22;2295;51.050;14.608;2023-04-24T12:17:25;15.30;99.90
4566;DHT22;2295;51.050;14.608;2023-04-24T12:19:58;15.80;99.90
4566;DHT22;2295;51.050;14.608;2023-04-24T12:22:42;15.70;99.90
4566;DHT22;2295;51.050;14.608;2023-04-24T12:25:11;16.20;99.90
4566;DHT22;2295;51.050;14.608;2023-04-24T12:27:40;16.30;99.90
4566;DHT22;2295;51.050;14.608;2023-04-24T12:30:11;16.00;99.90
4566;DHT22;2295;51.050;14.608;2023-04-24T12:32:45;16.00;99.90
4566;DHT22;2295;51.050;14.608;2023-04-24T12:35:13;16.00;99.90
4566;DHT22;2295;51.050;14.608;2023-04-24T12:37:43;16.10;99.90
4566;DHT22;2295;51.050;14.608;2023-04-24T12:40:14;16.00;99.90
4566;DHT22;2295;51.050;14.608;2023-04-24T12:42:44;16.60;99.90
4566;DHT22;2295;51.050;14.608;2023-04-24T12:45:12;16.90;99.90
4566;DHT22;2295;51.050;14.608;2023-04-24T12:47:42;16.70;99.90
4566;DHT22;2295;51.050;14.608;2023-04-24T12:50:12;17.10;99.90
4566;DHT22;2295;51.050;14.608;2023-04-24T12:52:42;17.50;99.90
4566;DHT22;2295;51.050;14.608;2023-04-24T12:55:11;17.30;97.30
4566;DHT22;2295;51.050;14.608;2023-04-24T12:57:40;17.30;99.90
4566;DHT22;2295;51.050;14.608;2023-04-24T13:00:08;17.30;97.10
4566;DHT22;2295;51.050;14.608;2023-04-24T13:02:40;17.30;99.20
4566;DHT22;2295;51.050;14.608;2023-04-24T13:05:08;17.10;97.40
4566;DHT22;2295;51.050;14.608;2023-04-24T13:07:38;16.40;99.40
4566;DHT22;2295;51.050;14.608;2023-04-24T13:10:09;16.30;99.90
4566;DHT22;2295;51.050;14.608;2023-04-24T13:12:37;16.30;99.90
4566;DHT22;2295;51.050;14.608;2023-04-24T13:15:07;16.30;99.90
4566;DHT22;2295;51.050;14.608;2023-04-24T13:17:35;16.10;99.90
4566;DHT22;2295;51.050;14.608;2023-04-24T13:20:04;16.10;99.90
4566;DHT22;2295;51.050;14.608;2023-04-24T13:22:33;15.90;99.90
4566;DHT22;2295;51.050;14.608;2023-04-24T13:25:01;15.40;99.90
4566;DHT22;2295;51.050;14.608;2023-04-24T13:27:31;14.60;99.90
4566;DHT22;2295;51.050;14.608;2023-04-24T13:29:59;13.80;99.90
4566;DHT22;2295;51.050;14.608;2023-04-24T13:32:27;13.00;99.90
4566;DHT22;2295;51.050;14.608;2023-04-24T13:34:56;12.10;99.90
4566;DHT22;2295;51.050;14.608;2023-04-24T13:37:24;11.50;99.90
4566;DHT22;2295;51.050;14.608;2023-04-24T13:39:53;11.00;99.90
4566;DHT22;2295;51.050;14.608;2023-04-24T13:42:21;10.70;99.90
4566;DHT22;2295;51.050;14.608;2023-04-24T13:44:51;10.40;99.90
4566;DHT22;2295;51.050;14.608;2023-04-24T13:47:20;10.40;99.90
4566;DHT22;2295;51.050;14.608;2023-04-24T13:49:49;10.60;99.90
4566;DHT22;2295;51.050;14.608;2023-04-24T13:52:17;10.60;99.90
4566;DHT22;2295;51.050;14.608;2023-04-24T13:54:45;10.70;99.90
4566;DHT22;2295;51.050;14.608;2023-04-24T13:57:15;10.80;99.90
4566;DHT22;2295;51.050;14.608;2023-04-24T13:59:43;11.10;99.90
4566;DHT22;2295;51.050;14.608;2023-04-24T14:02:13;11.20;99.90
4566;DHT22;2295;51.050;14.608;2023-04-24T14:04:42;11.50;99.90
4566;DHT22;2295;51.050;14.608;2023-04-24T14:07:10;11.70;99.90
4566;DHT22;2295;51.050;14.608;2023-04-24T14:09:39;11.80;99.90
4566;DHT22;2295;51.050;14.608;2023-04-24T14:12:07;12.10;99.90
4566;DHT22;2295;51.050;14.608;2023-04-24T14:14:35;12.30;99.90
4566;DHT22;2295;51.050;14.608;2023-04-24T14:17:04;12.70;99.90
4566;DHT22;2295;51.050;14.608;2023-04-24T14:19:34;13.70;99.90
4566;DHT22;2295;51.050;14.608;2023-04-24T14:22:02;15.20;99.90
4566;DHT22;2295;51.050;14.608;2023-04-24T14:24:33;15.90;99.90
4566;DHT22;2295;51.050;14.608;2023-04-24T14:27:01;15.70;99.90
4566;DHT22;2295;51.050;14.608;2023-04-24T14:29:30;16.00;99.90
4566;DHT22;2295;51.050;14.608;2023-04-24T14:32:01;16.80;99.90
4566;DHT22;2295;51.050;14.608;2023-04-24T14:34:29;16.80;99.90
4566;DHT22;2295;51.050;14.608;2023-04-24T14:36:59;16.60;99.90
4566;DHT22;2295;51.050;14.608;2023-04-24T14:39:28;16.40;99.90
4566;DHT22;2295;51.050;14.608;2023-04-24T14:41:56;16.10;99.90
4566;DHT22;2295;51.050;14.608;2023-04-24T14:44:24;15.90;99.90
4566;DHT22;2295;51.050;14.608;2023-04-24T14:46:53;15.80;99.90
4566;DHT22;2295;51.050;14.608;2023-04-24T14:49:24;15.70;99.90
4566;DHT22;2295;51.050;14.608;2023-04-24T14:52:03;15.40;99.90
4566;DHT22;2295;51.050;14.608;2023-04-24T14:54:32;15.10;99.90
4566;DHT22;2295;51.050;14.608;2023-04-24T14:57:00;14.80;99.90
4566;DHT22;2295;51.050;14.608;2023-04-24T14:59:29;14.60;99.90
4566;DHT22;2295;51.050;14.608;2023-04-24T15:02:01;14.50;99.90
4566;DHT22;2295;51.050;14.608;2023-04-24T15:04:42;14.30;99.90
4566;DHT22;2295;51.050;14.608;2023-04-24T15:07:12;14.20;99.90
4566;DHT22;2295;51.050;14.608;2023-04-24T15:09:47;14.10;99.90
4566;DHT22;2295;51.050;14.608;2023-04-24T15:12:15;14.00;99.90
4566;DHT22;2295;51.050;14.608;2023-04-24T15:14:43;14.10;99.90
4566;DHT22;2295;51.050;14.608;2023-04-24T15:17:14;14.10;99.90
4566;DHT22;2295;51.050;14.608;2023-04-24T15:19:42;14.10;99.90
4566;DHT22;2295;51.050;14.608;2023-04-24T15:22:12;14.10;99.90
4566;DHT22;2295;51.050;14.608;2023-04-24T15:24:46;13.90;99.90
4566;DHT22;2295;51.050;14.608;2023-04-24T15:27:15;13.90;99.90
4566;DHT22;2295;51.050;14.608;2023-04-24T15:29:43;13.90;99.90
4566;DHT22;2295;51.050;14.608;2023-04-24T15:32:11;14.00;99.90
4566;DHT22;2295;51.050;14.608;2023-04-24T15:34:40;14.20;99.90
4566;DHT22;2295;51.050;14.608;2023-04-24T15:37:08;14.40;99.90
4566;DHT22;2295;51.050;14.608;2023-04-24T15:39:44;14.50;99.90
4566;DHT22;2295;51.050;14.608;2023-04-24T15:42:13;14.60;99.90
4566;DHT22;2295;51.050;14.608;2023-04-24T15:44:44;15.00;99.90
4566;DHT22;2295;51.050;14.608;2023-04-24T15:47:12;15.90;95.60
4566;DHT22;2295;51.050;14.608;2023-04-24T15:49:41;16.10;88.90
4566;DHT22;2295;51.050;14.608;2023-04-24T15:52:09;16.60;87.40
4566;DHT22;2295;51.050;14.608;2023-04-24T15:54:38;17.30;82.50
4566;DHT22;2295;51.050;14.608;2023-04-24T15:57:08;17.60;79.40
4566;DHT22;2295;51.050;14.608;2023-04-24T15:59:40;17.60;74.90
4566;DHT22;2295;51.050;14.608;2023-04-24T16:02:09;17.30;72.10
4566;DHT22;2295;51.050;14.608;2023-04-24T16:04:44;17.10;74.00